Terminal Aerodrome Forecast
Issued by NWS Wilmington, OH

Home | Current Version | Previous Version | Text Only | Print | Product List | Glossary On
Versions: 1 2 3 4 5 6 7 8 9 10 11 12 13 14 15
000
FTUS41 KILN 262045 AAA
TAFCMH
TAF AMD
KCMH 262045Z 2621/2718 21008KT P6SM VCTS SCT045CB
      TEMPO 2622/2624 2SM -TSRA BKN025CB
     FM270200 22005KT P6SM SCT050 BKN200
     FM270900 VRB02KT 4SM BR SCT050 BKN200
     FM271300 31004KT P6SM SCT050 BKN200=

USA.gov is the U.S. government's official web portal to all federal, state and local government web resources and services.